sensor_id;sensor_type;location;lat;lon;timestamp;P1;durP1;ratioP1;P2;durP2;ratioP2
43552;SDS011;29153;42.696;23.218;2022-07-05T00:00:13;13.58;;;7.17;;
43552;SDS011;29153;42.696;23.218;2022-07-05T00:02:45;11.50;;;7.58;;
43552;SDS011;29153;42.696;23.218;2022-07-05T00:05:14;13.48;;;7.60;;
43552;SDS011;29153;42.696;23.218;2022-07-05T00:07:42;9.68;;;7.60;;
43552;SDS011;29153;42.696;23.218;2022-07-05T00:10:09;11.22;;;8.18;;
43552;SDS011;29153;42.696;23.218;2022-07-05T00:12:37;14.10;;;7.53;;
43552;SDS011;29153;42.696;23.218;2022-07-05T00:15:08;11.38;;;7.33;;
43552;SDS011;29153;42.696;23.218;2022-07-05T00:17:53;13.88;;;7.00;;
43552;SDS011;29153;42.696;23.218;2022-07-05T00:20:38;9.65;;;6.90;;
43552;SDS011;29153;42.696;23.218;2022-07-05T00:23:14;9.78;;;7.20;;
43552;SDS011;29153;42.696;23.218;2022-07-05T00:25:41;11.83;;;7.17;;
43552;SDS011;29153;42.696;23.218;2022-07-05T00:28:09;9.90;;;7.20;;
43552;SDS011;29153;42.696;23.218;2022-07-05T00:33:09;8.78;;;6.90;;
43552;SDS011;29153;42.696;23.218;2022-07-05T00:35:39;11.30;;;7.12;;
43552;SDS011;29153;42.696;23.218;2022-07-05T00:38:06;9.53;;;7.28;;
43552;SDS011;29153;42.696;23.218;2022-07-05T00:40:36;14.05;;;7.55;;
43552;SDS011;29153;42.696;23.218;2022-07-05T00:43:04;9.48;;;7.00;;
43552;SDS011;29153;42.696;23.218;2022-07-05T00:45:32;9.10;;;6.60;;
43552;SDS011;29153;42.696;23.218;2022-07-05T00:47:59;10.98;;;7.08;;
43552;SDS011;29153;42.696;23.218;2022-07-05T00:50:27;12.93;;;7.15;;
43552;SDS011;29153;42.696;23.218;2022-07-05T00:52:54;9.40;;;7.00;;
43552;SDS011;29153;42.696;23.218;2022-07-05T00:55:23;12.18;;;6.65;;
43552;SDS011;29153;42.696;23.218;2022-07-05T00:57:52;8.33;;;6.85;;
43552;SDS011;29153;42.696;23.218;2022-07-05T01:00:24;12.47;;;7.12;;
43552;SDS011;29153;42.696;23.218;2022-07-05T01:02:52;9.03;;;7.15;;
43552;SDS011;29153;42.696;23.218;2022-07-05T01:05:19;12.13;;;6.87;;
43552;SDS011;29153;42.696;23.218;2022-07-05T01:07:49;11.45;;;6.87;;
43552;SDS011;29153;42.696;23.218;2022-07-05T01:10:16;8.20;;;7.30;;
43552;SDS011;29153;42.696;23.218;2022-07-05T01:12:49;9.85;;;7.17;;
43552;SDS011;29153;42.696;23.218;2022-07-05T01:15:19;10.43;;;7.25;;
43552;SDS011;29153;42.696;23.218;2022-07-05T01:17:50;10.30;;;7.12;;
43552;SDS011;29153;42.696;23.218;2022-07-05T01:20:20;8.83;;;7.17;;
43552;SDS011;29153;42.696;23.218;2022-07-05T01:22:55;9.15;;;6.62;;
43552;SDS011;29153;42.696;23.218;2022-07-05T01:25:25;14.83;;;7.17;;
43552;SDS011;29153;42.696;23.218;2022-07-05T01:27:56;10.78;;;6.72;;
43552;SDS011;29153;42.696;23.218;2022-07-05T01:30:25;9.38;;;7.00;;
43552;SDS011;29153;42.696;23.218;2022-07-05T01:32:54;9.33;;;7.53;;
43552;SDS011;29153;42.696;23.218;2022-07-05T01:35:21;10.68;;;6.65;;
43552;SDS011;29153;42.696;23.218;2022-07-05T01:37:51;9.88;;;6.67;;
43552;SDS011;29153;42.696;23.218;2022-07-05T01:40:23;9.48;;;6.50;;
43552;SDS011;29153;42.696;23.218;2022-07-05T01:42:50;11.53;;;7.08;;
43552;SDS011;29153;42.696;23.218;2022-07-05T01:45:22;8.38;;;7.22;;
43552;SDS011;29153;42.696;23.218;2022-07-05T01:48:08;8.70;;;7.33;;
43552;SDS011;29153;42.696;23.218;2022-07-05T01:50:46;8.00;;;7.05;;
43552;SDS011;29153;42.696;23.218;2022-07-05T01:53:24;8.35;;;6.53;;
43552;SDS011;29153;42.696;23.218;2022-07-05T01:55:57;7.80;;;6.85;;
43552;SDS011;29153;42.696;23.218;2022-07-05T01:58:36;11.00;;;6.60;;
43552;SDS011;29153;42.696;23.218;2022-07-05T02:01:05;12.65;;;6.92;;
43552;SDS011;29153;42.696;23.218;2022-07-05T02:03:36;9.08;;;6.37;;
43552;SDS011;29153;42.696;23.218;2022-07-05T02:06:22;8.20;;;6.95;;
43552;SDS011;29153;42.696;23.218;2022-07-05T02:08:55;8.25;;;6.72;;
43552;SDS011;29153;42.696;23.218;2022-07-05T02:16:50;7.50;;;6.40;;
43552;SDS011;29153;42.696;23.218;2022-07-05T02:19:19;11.45;;;7.10;;
43552;SDS011;29153;42.696;23.218;2022-07-05T02:24:27;10.13;;;6.95;;
43552;SDS011;29153;42.696;23.218;2022-07-05T02:27:04;10.40;;;7.10;;
43552;SDS011;29153;42.696;23.218;2022-07-05T02:34:57;14.80;;;7.17;;
43552;SDS011;29153;42.696;23.218;2022-07-05T02:37:28;7.50;;;6.40;;
43552;SDS011;29153;42.696;23.218;2022-07-05T02:39:57;14.45;;;7.25;;
43552;SDS011;29153;42.696;23.218;2022-07-05T02:42:28;8.10;;;7.30;;
43552;SDS011;29153;42.696;23.218;2022-07-05T02:47:43;13.60;;;6.00;;
43552;SDS011;29153;42.696;23.218;2022-07-05T02:50:12;10.00;;;6.83;;
43552;SDS011;29153;42.696;23.218;2022-07-05T02:52:50;10.00;;;6.55;;
43552;SDS011;29153;42.696;23.218;2022-07-05T02:55:15;11.18;;;7.12;;
43552;SDS011;29153;42.696;23.218;2022-07-05T02:57:54;10.70;;;6.53;;
43552;SDS011;29153;42.696;23.218;2022-07-05T03:00:27;8.38;;;6.75;;
43552;SDS011;29153;42.696;23.218;2022-07-05T03:03:00;12.80;;;7.20;;
43552;SDS011;29153;42.696;23.218;2022-07-05T03:05:33;14.58;;;7.50;;
43552;SDS011;29153;42.696;23.218;2022-07-05T03:08:01;12.45;;;7.35;;
43552;SDS011;29153;42.696;23.218;2022-07-05T03:10:29;16.82;;;7.42;;
43552;SDS011;29153;42.696;23.218;2022-07-05T03:12:58;13.15;;;6.40;;
43552;SDS011;29153;42.696;23.218;2022-07-05T03:15:31;11.65;;;6.67;;
43552;SDS011;29153;42.696;23.218;2022-07-05T03:18:03;10.05;;;6.95;;
43552;SDS011;29153;42.696;23.218;2022-07-05T03:20:37;10.55;;;6.83;;
43552;SDS011;29153;42.696;23.218;2022-07-05T03:23:05;14.43;;;6.72;;
43552;SDS011;29153;42.696;23.218;2022-07-05T03:28:06;20.90;;;6.72;;
43552;SDS011;29153;42.696;23.218;2022-07-05T03:30:52;7.70;;;6.90;;
43552;SDS011;29153;42.696;23.218;2022-07-05T03:33:10;14.23;;;6.97;;
43552;SDS011;29153;42.696;23.218;2022-07-05T03:35:38;7.50;;;6.70;;
43552;SDS011;29153;42.696;23.218;2022-07-05T03:38:14;13.18;;;6.90;;
43552;SDS011;29153;42.696;23.218;2022-07-05T03:40:42;9.28;;;6.70;;
43552;SDS011;29153;42.696;23.218;2022-07-05T03:43:17;14.35;;;7.40;;
43552;SDS011;29153;42.696;23.218;2022-07-05T03:45:40;13.98;;;6.97;;
43552;SDS011;29153;42.696;23.218;2022-07-05T03:48:09;13.50;;;7.15;;
43552;SDS011;29153;42.696;23.218;2022-07-05T03:50:37;9.90;;;6.78;;
43552;SDS011;29153;42.696;23.218;2022-07-05T03:53:06;15.30;;;6.83;;
43552;SDS011;29153;42.696;23.218;2022-07-05T03:55:35;11.20;;;7.05;;
43552;SDS011;29153;42.696;23.218;2022-07-05T03:58:17;8.18;;;6.70;;
43552;SDS011;29153;42.696;23.218;2022-07-05T04:00:41;14.78;;;7.37;;
43552;SDS011;29153;42.696;23.218;2022-07-05T04:03:28;10.88;;;6.97;;
43552;SDS011;29153;42.696;23.218;2022-07-05T04:05:49;15.45;;;6.92;;
43552;SDS011;29153;42.696;23.218;2022-07-05T04:08:24;9.03;;;6.80;;
43552;SDS011;29153;42.696;23.218;2022-07-05T04:10:57;15.45;;;6.97;;
43552;SDS011;29153;42.696;23.218;2022-07-05T04:13:39;13.03;;;6.55;;
43552;SDS011;29153;42.696;23.218;2022-07-05T04:16:08;12.37;;;6.12;;
43552;SDS011;29153;42.696;23.218;2022-07-05T04:18:41;9.40;;;6.58;;
43552;SDS011;29153;42.696;23.218;2022-07-05T04:21:09;9.50;;;5.95;;
43552;SDS011;29153;42.696;23.218;2022-07-05T04:23:38;10.40;;;6.25;;
43552;SDS011;29153;42.696;23.218;2022-07-05T04:26:09;10.45;;;6.95;;
43552;SDS011;29153;42.696;23.218;2022-07-05T04:28:36;12.07;;;6.22;;
43552;SDS011;29153;42.696;23.218;2022-07-05T04:34:36;11.18;;;6.30;;
43552;SDS011;29153;42.696;23.218;2022-07-05T04:40:57;10.13;;;5.25;;
43552;SDS011;29153;42.696;23.218;2022-07-05T04:43:31;7.42;;;5.28;;
43552;SDS011;29153;42.696;23.218;2022-07-05T04:45:59;11.25;;;4.60;;
43552;SDS011;29153;42.696;23.218;2022-07-05T05:08:33;9.78;;;4.70;;
43552;SDS011;29153;42.696;23.218;2022-07-05T05:11:07;8.65;;;4.53;;
43552;SDS011;29153;42.696;23.218;2022-07-05T05:20:22;3.98;;;3.58;;
43552;SDS011;29153;42.696;23.218;2022-07-05T05:22:47;6.95;;;4.00;;
43552;SDS011;29153;42.696;23.218;2022-07-05T05:25:23;7.87;;;3.77;;
43552;SDS011;29153;42.696;23.218;2022-07-05T05:28:01;6.30;;;3.90;;
43552;SDS011;29153;42.696;23.218;2022-07-05T05:33:12;8.83;;;4.30;;
43552;SDS011;29153;42.696;23.218;2022-07-05T05:38:59;13.13;;;4.17;;
43552;SDS011;29153;42.696;23.218;2022-07-05T05:41:32;8.03;;;4.53;;
43552;SDS011;29153;42.696;23.218;2022-07-05T05:52:35;4.80;;;3.85;;
43552;SDS011;29153;42.696;23.218;2022-07-05T05:58:23;10.95;;;3.50;;
43552;SDS011;29153;42.696;23.218;2022-07-05T06:00:53;9.50;;;3.85;;
43552;SDS011;29153;42.696;23.218;2022-07-05T06:03:30;6.95;;;3.27;;
43552;SDS011;29153;42.696;23.218;2022-07-05T06:06:05;7.33;;;3.40;;
43552;SDS011;29153;42.696;23.218;2022-07-05T06:11:31;14.25;;;4.10;;
43552;SDS011;29153;42.696;23.218;2022-07-05T06:17:54;9.20;;;3.70;;
43552;SDS011;29153;42.696;23.218;2022-07-05T06:23:20;7.15;;;3.80;;
43552;SDS011;29153;42.696;23.218;2022-07-05T06:37:20;17.25;;;4.08;;
43552;SDS011;29153;42.696;23.218;2022-07-05T06:39:54;5.50;;;3.52;;
43552;SDS011;29153;42.696;23.218;2022-07-05T06:42:29;8.95;;;3.40;;
43552;SDS011;29153;42.696;23.218;2022-07-05T06:44:55;10.23;;;4.05;;
43552;SDS011;29153;42.696;23.218;2022-07-05T06:47:22;13.32;;;3.22;;
43552;SDS011;29153;42.696;23.218;2022-07-05T06:49:50;5.50;;;3.25;;
43552;SDS011;29153;42.696;23.218;2022-07-05T06:52:21;10.03;;;3.67;;
43552;SDS011;29153;42.696;23.218;2022-07-05T06:54:58;6.67;;;3.17;;
43552;SDS011;29153;42.696;23.218;2022-07-05T07:00:06;14.47;;;3.40;;
43552;SDS011;29153;42.696;23.218;2022-07-05T07:02:34;10.63;;;3.25;;
43552;SDS011;29153;42.696;23.218;2022-07-05T07:05:02;6.42;;;3.65;;
43552;SDS011;29153;42.696;23.218;2022-07-05T07:07:32;10.08;;;3.72;;
43552;SDS011;29153;42.696;23.218;2022-07-05T07:10:18;9.68;;;3.27;;
43552;SDS011;29153;42.696;23.218;2022-07-05T07:12:52;6.20;;;3.22;;
43552;SDS011;29153;42.696;23.218;2022-07-05T07:15:21;7.20;;;3.47;;
43552;SDS011;29153;42.696;23.218;2022-07-05T07:17:51;5.60;;;2.90;;
43552;SDS011;29153;42.696;23.218;2022-07-05T07:20:24;10.65;;;3.08;;
43552;SDS011;29153;42.696;23.218;2022-07-05T07:22:56;14.85;;;3.40;;
43552;SDS011;29153;42.696;23.218;2022-07-05T07:25:24;8.10;;;2.98;;
43552;SDS011;29153;42.696;23.218;2022-07-05T07:27:52;14.40;;;2.92;;
43552;SDS011;29153;42.696;23.218;2022-07-05T07:30:23;9.18;;;3.22;;
43552;SDS011;29153;42.696;23.218;2022-07-05T07:32:54;8.45;;;2.98;;
43552;SDS011;29153;42.696;23.218;2022-07-05T07:41:04;5.65;;;2.83;;
43552;SDS011;29153;42.696;23.218;2022-07-05T07:43:33;5.40;;;2.65;;
43552;SDS011;29153;42.696;23.218;2022-07-05T07:52:43;6.22;;;2.67;;
43552;SDS011;29153;42.696;23.218;2022-07-05T07:55:14;7.37;;;2.87;;
43552;SDS011;29153;42.696;23.218;2022-07-05T07:57:43;7.28;;;2.80;;
43552;SDS011;29153;42.696;23.218;2022-07-05T08:02:54;6.20;;;2.50;;
43552;SDS011;29153;42.696;23.218;2022-07-05T08:05:22;8.25;;;3.02;;
43552;SDS011;29153;42.696;23.218;2022-07-05T08:07:50;11.80;;;2.77;;
43552;SDS011;29153;42.696;23.218;2022-07-05T08:10:19;7.65;;;2.40;;
43552;SDS011;29153;42.696;23.218;2022-07-05T08:12:46;11.05;;;2.70;;
43552;SDS011;29153;42.696;23.218;2022-07-05T08:15:22;10.08;;;2.58;;
43552;SDS011;29153;42.696;23.218;2022-07-05T08:20:40;19.10;;;3.22;;
43552;SDS011;29153;42.696;23.218;2022-07-05T08:23:02;6.75;;;3.00;;
43552;SDS011;29153;42.696;23.218;2022-07-05T08:25:31;8.43;;;2.75;;
43552;SDS011;29153;42.696;23.218;2022-07-05T08:27:59;6.20;;;2.55;;
43552;SDS011;29153;42.696;23.218;2022-07-05T08:30:26;21.40;;;3.25;;
43552;SDS011;29153;42.696;23.218;2022-07-05T08:32:54;9.60;;;2.85;;
43552;SDS011;29153;42.696;23.218;2022-07-05T08:35:22;7.95;;;3.00;;
43552;SDS011;29153;42.696;23.218;2022-07-05T08:37:49;9.78;;;3.05;;
43552;SDS011;29153;42.696;23.218;2022-07-05T08:40:17;7.33;;;3.00;;
43552;SDS011;29153;42.696;23.218;2022-07-05T08:42:47;9.35;;;3.45;;
43552;SDS011;29153;42.696;23.218;2022-07-05T08:45:16;5.47;;;3.67;;
43552;SDS011;29153;42.696;23.218;2022-07-05T08:47:44;9.18;;;3.30;;
43552;SDS011;29153;42.696;23.218;2022-07-05T08:50:14;9.90;;;3.95;;
43552;SDS011;29153;42.696;23.218;2022-07-05T08:52:43;9.90;;;3.62;;
43552;SDS011;29153;42.696;23.218;2022-07-05T08:55:12;11.15;;;4.03;;
43552;SDS011;29153;42.696;23.218;2022-07-05T08:57:41;8.55;;;3.40;;
43552;SDS011;29153;42.696;23.218;2022-07-05T09:00:09;5.80;;;3.05;;
43552;SDS011;29153;42.696;23.218;2022-07-05T09:05:41;18.27;;;4.28;;
43552;SDS011;29153;42.696;23.218;2022-07-05T09:08:23;11.73;;;3.10;;
43552;SDS011;29153;42.696;23.218;2022-07-05T09:10:51;11.10;;;3.85;;
43552;SDS011;29153;42.696;23.218;2022-07-05T09:13:21;9.98;;;4.25;;
43552;SDS011;29153;42.696;23.218;2022-07-05T09:15:53;6.42;;;3.80;;
43552;SDS011;29153;42.696;23.218;2022-07-05T09:21:22;10.13;;;3.58;;
43552;SDS011;29153;42.696;23.218;2022-07-05T09:23:56;6.08;;;3.95;;
43552;SDS011;29153;42.696;23.218;2022-07-05T09:26:43;6.47;;;4.25;;
43552;SDS011;29153;42.696;23.218;2022-07-05T09:29:17;11.53;;;4.60;;
43552;SDS011;29153;42.696;23.218;2022-07-05T09:31:46;9.15;;;4.08;;
43552;SDS011;29153;42.696;23.218;2022-07-05T09:34:16;7.25;;;4.00;;
43552;SDS011;29153;42.696;23.218;2022-07-05T09:36:56;5.65;;;3.95;;
43552;SDS011;29153;42.696;23.218;2022-07-05T09:42:13;10.48;;;4.50;;
43552;SDS011;29153;42.696;23.218;2022-07-05T09:44:55;7.78;;;4.17;;
43552;SDS011;29153;42.696;23.218;2022-07-05T09:47:28;8.15;;;4.37;;
43552;SDS011;29153;42.696;23.218;2022-07-05T09:50:18;9.35;;;5.03;;
43552;SDS011;29153;42.696;23.218;2022-07-05T09:52:42;8.63;;;4.47;;
43552;SDS011;29153;42.696;23.218;2022-07-05T09:55:13;12.63;;;4.58;;
43552;SDS011;29153;42.696;23.218;2022-07-05T09:57:43;15.68;;;4.97;;
43552;SDS011;29153;42.696;23.218;2022-07-05T10:00:20;9.60;;;5.00;;
43552;SDS011;29153;42.696;23.218;2022-07-05T10:02:57;10.88;;;4.53;;
43552;SDS011;29153;42.696;23.218;2022-07-05T10:05:24;12.18;;;4.65;;
43552;SDS011;29153;42.696;23.218;2022-07-05T10:07:53;14.85;;;4.62;;
43552;SDS011;29153;42.696;23.218;2022-07-05T10:10:23;7.20;;;4.60;;
43552;SDS011;29153;42.696;23.218;2022-07-05T10:12:57;11.65;;;4.90;;
43552;SDS011;29153;42.696;23.218;2022-07-05T10:15:30;9.58;;;5.05;;
43552;SDS011;29153;42.696;23.218;2022-07-05T10:18:03;11.50;;;4.85;;
43552;SDS011;29153;42.696;23.218;2022-07-05T10:23:08;10.50;;;5.40;;
43552;SDS011;29153;42.696;23.218;2022-07-05T10:25:38;7.15;;;4.83;;
43552;SDS011;29153;42.696;23.218;2022-07-05T10:28:08;11.22;;;4.95;;
43552;SDS011;29153;42.696;23.218;2022-07-05T10:30:37;13.65;;;5.60;;
43552;SDS011;29153;42.696;23.218;2022-07-05T10:33:10;41.25;;;6.97;;
43552;SDS011;29153;42.696;23.218;2022-07-05T10:35:34;17.15;;;5.45;;
43552;SDS011;29153;42.696;23.218;2022-07-05T10:38:02;10.03;;;5.40;;
43552;SDS011;29153;42.696;23.218;2022-07-05T10:40:30;14.07;;;5.10;;
43552;SDS011;29153;42.696;23.218;2022-07-05T10:43:01;11.40;;;4.87;;
43552;SDS011;29153;42.696;23.218;2022-07-05T10:45:35;12.53;;;5.12;;
43552;SDS011;29153;42.696;23.218;2022-07-05T10:55:53;11.83;;;5.20;;
43552;SDS011;29153;42.696;23.218;2022-07-05T10:58:26;12.68;;;5.53;;
43552;SDS011;29153;42.696;23.218;2022-07-05T11:06:32;6.53;;;5.08;;
43552;SDS011;29153;42.696;23.218;2022-07-05T11:11:42;10.25;;;5.20;;
43552;SDS011;29153;42.696;23.218;2022-07-05T11:20:43;11.20;;;5.22;;
43552;SDS011;29153;42.696;23.218;2022-07-05T11:22:39;9.35;;;4.70;;
43552;SDS011;29153;42.696;23.218;2022-07-05T11:25:09;25.75;;;5.65;;
43552;SDS011;29153;42.696;23.218;2022-07-05T11:27:58;12.47;;;4.80;;
43552;SDS011;29153;42.696;23.218;2022-07-05T11:30:43;8.38;;;4.70;;
43552;SDS011;29153;42.696;23.218;2022-07-05T11:36:27;7.78;;;5.17;;
43552;SDS011;29153;42.696;23.218;2022-07-05T11:39:15;9.53;;;5.60;;
43552;SDS011;29153;42.696;23.218;2022-07-05T11:41:46;9.73;;;5.58;;
43552;SDS011;29153;42.696;23.218;2022-07-05T11:44:14;11.73;;;5.95;;
43552;SDS011;29153;42.696;23.218;2022-07-05T11:46:42;10.58;;;5.22;;
43552;SDS011;29153;42.696;23.218;2022-07-05T11:49:10;8.75;;;5.40;;
43552;SDS011;29153;42.696;23.218;2022-07-05T11:51:38;11.05;;;5.03;;
43552;SDS011;29153;42.696;23.218;2022-07-05T11:54:08;8.58;;;5.58;;
43552;SDS011;29153;42.696;23.218;2022-07-05T11:56:35;10.58;;;5.30;;
43552;SDS011;29153;42.696;23.218;2022-07-05T11:59:22;7.37;;;5.05;;
43552;SDS011;29153;42.696;23.218;2022-07-05T12:01:50;9.28;;;5.53;;
43552;SDS011;29153;42.696;23.218;2022-07-05T12:06:55;7.12;;;4.90;;
43552;SDS011;29153;42.696;23.218;2022-07-05T12:09:29;18.15;;;5.37;;
43552;SDS011;29153;42.696;23.218;2022-07-05T12:11:55;10.25;;;5.37;;
43552;SDS011;29153;42.696;23.218;2022-07-05T12:14:53;11.93;;;5.10;;
43552;SDS011;29153;42.696;23.218;2022-07-05T12:17:21;9.85;;;4.75;;
43552;SDS011;29153;42.696;23.218;2022-07-05T12:19:48;8.40;;;5.22;;
43552;SDS011;29153;42.696;23.218;2022-07-05T12:22:41;8.83;;;4.65;;
43552;SDS011;29153;42.696;23.218;2022-07-05T12:25:07;9.08;;;5.12;;
43552;SDS011;29153;42.696;23.218;2022-07-05T12:27:40;10.40;;;5.83;;
43552;SDS011;29153;42.696;23.218;2022-07-05T12:30:09;7.28;;;5.22;;
43552;SDS011;29153;42.696;23.218;2022-07-05T12:33:01;6.00;;;5.10;;
43552;SDS011;29153;42.696;23.218;2022-07-05T12:38:03;9.55;;;5.55;;
43552;SDS011;29153;42.696;23.218;2022-07-05T12:40:41;8.03;;;5.12;;
43552;SDS011;29153;42.696;23.218;2022-07-05T12:43:18;10.03;;;5.72;;
43552;SDS011;29153;42.696;23.218;2022-07-05T12:45:44;11.12;;;4.92;;
43552;SDS011;29153;42.696;23.218;2022-07-05T12:48:35;10.82;;;5.12;;
43552;SDS011;29153;42.696;23.218;2022-07-05T12:51:08;9.38;;;5.37;;
43552;SDS011;29153;42.696;23.218;2022-07-05T12:53:49;8.78;;;5.05;;
43552;SDS011;29153;42.696;23.218;2022-07-05T12:56:35;8.03;;;5.20;;
43552;SDS011;29153;42.696;23.218;2022-07-05T12:59:21;14.13;;;5.80;;
43552;SDS011;29153;42.696;23.218;2022-07-05T13:01:48;10.40;;;5.28;;
43552;SDS011;29153;42.696;23.218;2022-07-05T13:04:16;9.85;;;5.28;;
43552;SDS011;29153;42.696;23.218;2022-07-05T13:06:52;8.40;;;5.40;;
43552;SDS011;29153;42.696;23.218;2022-07-05T13:09:36;9.23;;;5.12;;
43552;SDS011;29153;42.696;23.218;2022-07-05T13:12:17;11.30;;;5.53;;
43552;SDS011;29153;42.696;23.218;2022-07-05T13:14:50;17.75;;;5.42;;
43552;SDS011;29153;42.696;23.218;2022-07-05T13:17:19;7.05;;;5.00;;
43552;SDS011;29153;42.696;23.218;2022-07-05T13:19:50;8.13;;;5.47;;
43552;SDS011;29153;42.696;23.218;2022-07-05T13:22:18;9.95;;;5.42;;
43552;SDS011;29153;42.696;23.218;2022-07-05T13:24:46;8.65;;;5.20;;
43552;SDS011;29153;42.696;23.218;2022-07-05T13:27:13;7.65;;;4.60;;
43552;SDS011;29153;42.696;23.218;2022-07-05T13:29:41;9.08;;;5.22;;
43552;SDS011;29153;42.696;23.218;2022-07-05T13:32:10;10.70;;;5.92;;
43552;SDS011;29153;42.696;23.218;2022-07-05T13:34:38;12.25;;;5.40;;
43552;SDS011;29153;42.696;23.218;2022-07-05T13:37:05;8.28;;;5.53;;
43552;SDS011;29153;42.696;23.218;2022-07-05T13:39:33;12.85;;;5.47;;
43552;SDS011;29153;42.696;23.218;2022-07-05T13:42:00;14.73;;;6.20;;
43552;SDS011;29153;42.696;23.218;2022-07-05T13:44:29;8.13;;;5.33;;
43552;SDS011;29153;42.696;23.218;2022-07-05T13:46:57;6.75;;;5.45;;
43552;SDS011;29153;42.696;23.218;2022-07-05T13:49:25;9.98;;;5.45;;
43552;SDS011;29153;42.696;23.218;2022-07-05T13:51:57;9.73;;;5.22;;
43552;SDS011;29153;42.696;23.218;2022-07-05T13:54:26;8.63;;;5.78;;
43552;SDS011;29153;42.696;23.218;2022-07-05T13:56:55;10.23;;;5.67;;
43552;SDS011;29153;42.696;23.218;2022-07-05T13:59:23;10.05;;;5.50;;
43552;SDS011;29153;42.696;23.218;2022-07-05T14:01:51;12.15;;;6.08;;
43552;SDS011;29153;42.696;23.218;2022-07-05T14:04:18;14.40;;;5.78;;
43552;SDS011;29153;42.696;23.218;2022-07-05T14:06:47;10.58;;;5.35;;
43552;SDS011;29153;42.696;23.218;2022-07-05T14:09:15;16.35;;;5.90;;
43552;SDS011;29153;42.696;23.218;2022-07-05T14:11:43;13.28;;;6.08;;
43552;SDS011;29153;42.696;23.218;2022-07-05T14:14:11;10.05;;;5.42;;
43552;SDS011;29153;42.696;23.218;2022-07-05T14:16:40;10.50;;;5.60;;
43552;SDS011;29153;42.696;23.218;2022-07-05T14:19:08;11.70;;;5.58;;
43552;SDS011;29153;42.696;23.218;2022-07-05T14:21:35;12.60;;;5.72;;
43552;SDS011;29153;42.696;23.218;2022-07-05T14:24:03;13.43;;;5.55;;
43552;SDS011;29153;42.696;23.218;2022-07-05T14:26:31;10.68;;;5.28;;
43552;SDS011;29153;42.696;23.218;2022-07-05T14:28:59;14.53;;;5.75;;
43552;SDS011;29153;42.696;23.218;2022-07-05T14:31:27;12.25;;;6.12;;
43552;SDS011;29153;42.696;23.218;2022-07-05T14:33:56;8.38;;;5.67;;
43552;SDS011;29153;42.696;23.218;2022-07-05T14:36:24;16.70;;;5.47;;
43552;SDS011;29153;42.696;23.218;2022-07-05T14:38:51;14.60;;;6.47;;
43552;SDS011;29153;42.696;23.218;2022-07-05T14:41:19;9.25;;;5.67;;
43552;SDS011;29153;42.696;23.218;2022-07-05T14:43:47;15.50;;;6.00;;
43552;SDS011;29153;42.696;23.218;2022-07-05T14:46:17;9.80;;;5.87;;
43552;SDS011;29153;42.696;23.218;2022-07-05T14:48:44;19.37;;;6.35;;
43552;SDS011;29153;42.696;23.218;2022-07-05T14:51:13;10.23;;;5.62;;
43552;SDS011;29153;42.696;23.218;2022-07-05T14:53:41;13.28;;;5.60;;
43552;SDS011;29153;42.696;23.218;2022-07-05T14:56:10;12.50;;;5.67;;
43552;SDS011;29153;42.696;23.218;2022-07-05T14:58:38;13.78;;;6.00;;
43552;SDS011;29153;42.696;23.218;2022-07-05T15:01:06;15.38;;;6.08;;
43552;SDS011;29153;42.696;23.218;2022-07-05T15:03:33;52.35;;;7.05;;
43552;SDS011;29153;42.696;23.218;2022-07-05T15:06:01;11.43;;;5.22;;
43552;SDS011;29153;42.696;23.218;2022-07-05T15:08:37;9.38;;;5.20;;
43552;SDS011;29153;42.696;23.218;2022-07-05T15:11:04;8.70;;;6.08;;
43552;SDS011;29153;42.696;23.218;2022-07-05T15:13:31;13.60;;;5.50;;
43552;SDS011;29153;42.696;23.218;2022-07-05T15:16:00;11.33;;;5.40;;
43552;SDS011;29153;42.696;23.218;2022-07-05T15:18:29;6.72;;;5.08;;
43552;SDS011;29153;42.696;23.218;2022-07-05T15:20:56;10.68;;;5.50;;
43552;SDS011;29153;42.696;23.218;2022-07-05T15:23:24;9.93;;;5.20;;
43552;SDS011;29153;42.696;23.218;2022-07-05T15:25:55;7.87;;;4.97;;
43552;SDS011;29153;42.696;23.218;2022-07-05T15:28:27;11.38;;;6.08;;
43552;SDS011;29153;42.696;23.218;2022-07-05T15:30:55;12.13;;;5.60;;
43552;SDS011;29153;42.696;23.218;2022-07-05T15:33:22;6.78;;;5.05;;
43552;SDS011;29153;42.696;23.218;2022-07-05T15:35:51;15.20;;;4.85;;
43552;SDS011;29153;42.696;23.218;2022-07-05T15:38:21;9.08;;;5.08;;
43552;SDS011;29153;42.696;23.218;2022-07-05T15:40:48;10.55;;;4.62;;
43552;SDS011;29153;42.696;23.218;2022-07-05T15:43:16;11.63;;;4.78;;
43552;SDS011;29153;42.696;23.218;2022-07-05T15:45:45;6.35;;;4.97;;
43552;SDS011;29153;42.696;23.218;2022-07-05T15:48:13;10.90;;;5.25;;
43552;SDS011;29153;42.696;23.218;2022-07-05T15:50:40;5.80;;;5.20;;
43552;SDS011;29153;42.696;23.218;2022-07-05T15:53:08;11.25;;;4.85;;
43552;SDS011;29153;42.696;23.218;2022-07-05T15:55:36;6.85;;;4.90;;
43552;SDS011;29153;42.696;23.218;2022-07-05T15:58:03;10.30;;;5.25;;
43552;SDS011;29153;42.696;23.218;2022-07-05T16:00:31;16.67;;;5.60;;
43552;SDS011;29153;42.696;23.218;2022-07-05T16:02:58;13.55;;;5.33;;
43552;SDS011;29153;42.696;23.218;2022-07-05T16:05:26;13.62;;;6.10;;
43552;SDS011;29153;42.696;23.218;2022-07-05T16:07:54;12.43;;;5.47;;
43552;SDS011;29153;42.696;23.218;2022-07-05T16:10:21;11.03;;;5.37;;
43552;SDS011;29153;42.696;23.218;2022-07-05T16:12:50;10.38;;;5.03;;
43552;SDS011;29153;42.696;23.218;2022-07-05T16:15:18;11.12;;;5.22;;
43552;SDS011;29153;42.696;23.218;2022-07-05T16:18:03;8.00;;;5.20;;
43552;SDS011;29153;42.696;23.218;2022-07-05T16:20:31;8.38;;;5.00;;
43552;SDS011;29153;42.696;23.218;2022-07-05T16:23:00;9.03;;;5.05;;
43552;SDS011;29153;42.696;23.218;2022-07-05T16:25:28;7.95;;;5.15;;
43552;SDS011;29153;42.696;23.218;2022-07-05T16:27:55;17.05;;;5.28;;
43552;SDS011;29153;42.696;23.218;2022-07-05T16:30:23;7.30;;;5.05;;
43552;SDS011;29153;42.696;23.218;2022-07-05T16:32:51;12.45;;;5.22;;
43552;SDS011;29153;42.696;23.218;2022-07-05T16:35:18;10.63;;;5.62;;
43552;SDS011;29153;42.696;23.218;2022-07-05T16:37:46;10.70;;;5.10;;
43552;SDS011;29153;42.696;23.218;2022-07-05T16:40:14;12.25;;;5.33;;
43552;SDS011;29153;42.696;23.218;2022-07-05T16:42:41;9.63;;;5.17;;
43552;SDS011;29153;42.696;23.218;2022-07-05T16:45:09;8.70;;;5.00;;
43552;SDS011;29153;42.696;23.218;2022-07-05T16:47:37;12.82;;;5.12;;
43552;SDS011;29153;42.696;23.218;2022-07-05T16:50:04;7.53;;;4.97;;
43552;SDS011;29153;42.696;23.218;2022-07-05T16:52:32;9.78;;;5.53;;
43552;SDS011;29153;42.696;23.218;2022-07-05T16:55:01;11.00;;;5.40;;
43552;SDS011;29153;42.696;23.218;2022-07-05T16:57:28;7.42;;;4.78;;
43552;SDS011;29153;42.696;23.218;2022-07-05T16:59:56;12.18;;;4.90;;
43552;SDS011;29153;42.696;23.218;2022-07-05T17:02:24;5.45;;;4.75;;
43552;SDS011;29153;42.696;23.218;2022-07-05T17:04:51;6.05;;;4.75;;
43552;SDS011;29153;42.696;23.218;2022-07-05T17:07:19;11.55;;;5.08;;
43552;SDS011;29153;42.696;23.218;2022-07-05T17:09:47;11.20;;;5.08;;
43552;SDS011;29153;42.696;23.218;2022-07-05T17:12:15;11.65;;;4.87;;
43552;SDS011;29153;42.696;23.218;2022-07-05T17:14:42;8.30;;;4.75;;
43552;SDS011;29153;42.696;23.218;2022-07-05T17:17:10;8.48;;;5.12;;
43552;SDS011;29153;42.696;23.218;2022-07-05T17:19:39;10.82;;;4.50;;
43552;SDS011;29153;42.696;23.218;2022-07-05T17:22:07;15.50;;;5.40;;
43552;SDS011;29153;42.696;23.218;2022-07-05T17:24:34;9.45;;;5.03;;